createdAt,value
2022-08-08T00:00:50.385Z,0.00
2022-08-08T00:00:52.784Z,0.00
2022-08-08T00:01:11.338Z,0.00
2022-08-08T00:02:32.864Z,0.00
2022-08-08T00:03:19.906Z,0.00
2022-08-08T00:04:11.277Z,0.00
2022-08-08T00:05:11.210Z,0.00
2022-08-08T00:06:10.210Z,0.00
2022-08-08T00:07:12.966Z,0.00
2022-08-08T00:08:10.180Z,0.00
2022-08-08T00:09:12.156Z,0.00
2022-08-08T00:10:11.161Z,0.00
2022-08-08T00:11:13.092Z,0.00
2022-08-08T00:12:10.652Z,0.00
2022-08-08T00:13:10.537Z,0.00
2022-08-08T00:14:15.912Z,0.00
2022-08-08T00:15:13.157Z,0.00
2022-08-08T00:16:11.090Z,0.00
2022-08-08T00:17:22.929Z,0.00
2022-08-08T00:18:11.090Z,0.00
2022-08-08T00:19:10.052Z,0.00
2022-08-08T00:20:14.467Z,0.00
2022-08-08T00:21:10.030Z,0.00
2022-08-08T00:22:11.022Z,0.00
2022-08-08T00:23:10.010Z,0.00
2022-08-08T00:24:10.012Z,0.00
2022-08-08T00:25:09.991Z,0.00
2022-08-08T00:26:12.974Z,0.00
2022-08-08T00:27:09.961Z,0.00
2022-08-08T00:28:34.210Z,0.00
2022-08-08T00:29:10.960Z,0.00
2022-08-08T00:30:11.280Z,0.00
2022-08-08T00:32:20.678Z,0.00
2022-08-08T00:32:28.532Z,0.00
2022-08-08T00:33:10.891Z,0.00
2022-08-08T00:34:18.567Z,0.00
2022-08-08T00:35:18.643Z,0.00
2022-08-08T00:36:14.856Z,0.00
2022-08-08T00:37:16.301Z,0.00
2022-08-08T00:38:16.717Z,0.00
2022-08-08T00:41:06.451Z,0.00
2022-08-08T00:41:12.008Z,0.00
2022-08-08T00:41:14.762Z,0.00
2022-08-08T00:42:19.840Z,0.00
2022-08-08T00:43:18.567Z,0.00
2022-08-08T00:44:10.772Z,0.00
2022-08-08T00:45:21.453Z,0.00
2022-08-08T00:46:16.150Z,0.00
2022-08-08T00:47:19.470Z,0.00
2022-08-08T00:48:30.306Z,0.00
2022-08-08T00:49:22.160Z,0.00
2022-08-08T00:50:10.702Z,0.00
2022-08-08T00:51:09.903Z,0.00
2022-08-08T00:52:20.096Z,0.00
2022-08-08T00:53:15.644Z,0.00
2022-08-08T00:54:15.353Z,0.00
2022-08-08T00:55:10.641Z,0.00
2022-08-08T00:56:11.498Z,0.00
2022-08-08T00:57:12.771Z,0.00
2022-08-08T00:58:13.688Z,0.00
2022-08-08T00:59:09.600Z,0.00
2022-08-08T01:00:09.587Z,0.00
2022-08-08T01:01:09.598Z,0.00
2022-08-08T01:03:15.358Z,0.00
2022-08-08T01:03:59.402Z,0.00
2022-08-08T01:04:11.243Z,0.00
2022-08-08T01:05:09.524Z,0.00
2022-08-08T01:06:10.851Z,0.00
2022-08-08T01:07:09.504Z,0.00
2022-08-08T01:08:09.493Z,0.00
2022-08-08T01:09:35.874Z,0.00
2022-08-08T01:10:10.471Z,0.00
2022-08-08T01:11:09.457Z,0.00
2022-08-08T01:12:09.443Z,0.00
2022-08-08T01:13:09.435Z,0.00
2022-08-08T01:14:13.643Z,0.00
2022-08-08T01:15:10.413Z,0.00
2022-08-08T01:16:10.404Z,0.00
2022-08-08T01:17:10.387Z,0.00
2022-08-08T01:18:19.712Z,0.00
2022-08-08T01:19:13.915Z,0.00
2022-08-08T01:20:13.179Z,0.00
2022-08-08T01:21:09.344Z,0.00
2022-08-08T01:22:13.380Z,0.00
2022-08-08T01:24:02.363Z,0.00
2022-08-08T01:24:13.826Z,0.00
2022-08-08T01:25:14.471Z,0.00
2022-08-08T01:26:11.386Z,0.00
2022-08-08T01:27:10.833Z,0.00
2022-08-08T01:28:10.265Z,0.00
2022-08-08T01:29:10.254Z,0.00
2022-08-08T01:30:09.245Z,0.00
2022-08-08T01:31:25.808Z,0.00
2022-08-08T01:32:17.059Z,0.00
2022-08-08T01:33:23.772Z,0.00
2022-08-08T01:34:10.195Z,0.00
2022-08-08T01:35:11.086Z,0.00
2022-08-08T01:36:09.174Z,0.00
2022-08-08T01:37:13.655Z,0.00
2022-08-08T01:38:09.172Z,0.00
2022-08-08T01:39:09.134Z,0.00
2022-08-08T01:40:14.812Z,0.00
2022-08-08T01:41:11.522Z,0.00
2022-08-08T01:42:10.115Z,0.00
2022-08-08T01:43:09.095Z,0.00
2022-08-08T01:44:09.095Z,0.00
2022-08-08T01:45:09.901Z,0.00
2022-08-08T01:46:09.077Z,0.00
2022-08-08T01:48:13.847Z,0.00
2022-08-08T01:48:23.806Z,0.00
2022-08-08T01:49:10.822Z,0.00
2022-08-08T01:50:09.017Z,0.00
2022-08-08T01:51:30.475Z,0.00
2022-08-08T01:52:53.119Z,0.00
2022-08-08T01:55:16.260Z,0.00
2022-08-08T01:55:16.959Z,0.00
2022-08-08T01:55:45.198Z,0.00
2022-08-08T01:56:30.558Z,0.00
2022-08-08T01:57:10.733Z,0.00
2022-08-08T01:58:11.580Z,0.00
2022-08-08T01:59:08.907Z,0.00
2022-08-08T02:00:08.907Z,0.00
2022-08-08T02:01:15.780Z,0.00
2022-08-08T02:02:09.904Z,0.00
2022-08-08T02:03:57.445Z,0.00
2022-08-08T02:04:09.856Z,0.00
2022-08-08T02:05:08.837Z,0.00
2022-08-08T02:06:08.834Z,0.00
2022-08-08T02:07:09.866Z,0.00
2022-08-08T02:08:08.807Z,0.00
2022-08-08T02:09:15.937Z,0.00
2022-08-08T02:10:11.934Z,0.00
2022-08-08T02:11:23.012Z,0.00
2022-08-08T02:12:12.494Z,0.00
2022-08-08T02:13:08.777Z,0.00
2022-08-08T02:14:09.772Z,0.00
2022-08-08T02:15:12.306Z,0.00
2022-08-08T02:16:08.719Z,0.00
2022-08-08T02:17:10.608Z,0.00
2022-08-08T02:18:10.311Z,0.00
2022-08-08T02:19:26.793Z,0.00
2022-08-08T02:20:15.981Z,0.00
2022-08-08T02:21:13.257Z,0.00
2022-08-08T02:22:08.650Z,0.00
2022-08-08T02:23:08.637Z,0.00
2022-08-08T02:24:09.647Z,0.00
2022-08-08T02:25:11.801Z,0.00
2022-08-08T02:26:10.283Z,0.00
2022-08-08T02:27:09.173Z,0.00
2022-08-08T02:28:08.578Z,0.00
2022-08-08T02:29:08.566Z,0.00
2022-08-08T02:30:20.811Z,0.00
2022-08-08T02:31:43.153Z,0.00
2022-08-08T02:32:09.558Z,0.00
2022-08-08T02:33:09.518Z,0.00
2022-08-08T02:34:09.718Z,0.00
2022-08-08T02:35:10.826Z,0.00
2022-08-08T02:36:08.508Z,0.00
2022-08-08T02:37:09.797Z,0.00
2022-08-08T02:38:09.311Z,0.00
2022-08-08T02:39:42.402Z,0.00
2022-08-08T02:40:09.508Z,0.00
2022-08-08T02:41:57.987Z,0.00
2022-08-08T02:42:10.665Z,0.00
2022-08-08T02:44:36.884Z,0.00
2022-08-08T02:44:38.863Z,0.00
2022-08-08T02:45:09.661Z,0.00
2022-08-08T02:46:09.391Z,0.00
2022-08-08T02:47:08.360Z,0.00
2022-08-08T02:48:09.029Z,0.00
2022-08-08T02:49:08.339Z,0.00
2022-08-08T02:50:17.641Z,0.00
2022-08-08T02:51:11.909Z,0.00
2022-08-08T02:52:32.618Z,0.00
2022-08-08T02:53:09.302Z,0.00
2022-08-08T02:54:08.281Z,0.00
2022-08-08T02:55:10.497Z,0.00
2022-08-08T02:56:09.258Z,0.00
2022-08-08T02:57:12.057Z,0.00
2022-08-08T02:58:08.237Z,0.00
2022-08-08T02:59:25.843Z,0.00
2022-08-08T03:00:15.860Z,0.00
2022-08-08T03:01:14.875Z,0.00
2022-08-08T03:02:09.237Z,0.00
2022-08-08T03:03:09.184Z,0.00
2022-08-08T03:05:03.297Z,0.00
2022-08-08T03:05:10.755Z,0.00
2022-08-08T03:06:08.139Z,0.00
2022-08-08T03:07:08.161Z,0.00
2022-08-08T03:08:09.138Z,0.00
2022-08-08T03:09:08.111Z,0.00
2022-08-08T03:10:08.099Z,0.00
2022-08-08T03:11:13.885Z,0.00
2022-08-08T03:12:13.986Z,0.00
2022-08-08T03:15:53.487Z,0.00
2022-08-08T03:15:57.397Z,0.00
2022-08-08T03:16:02.090Z,0.00
2022-08-08T03:16:09.271Z,0.00
2022-08-08T03:17:08.558Z,0.00
2022-08-08T03:18:08.011Z,0.00
2022-08-08T03:19:08.010Z,0.00
2022-08-08T03:20:10.487Z,0.00
2022-08-08T03:21:09.596Z,0.00
2022-08-08T03:22:38.942Z,0.00
2022-08-08T03:23:08.959Z,0.00
2022-08-08T03:24:08.961Z,4.00
2022-08-08T03:25:14.454Z,4.00
2022-08-08T03:26:08.912Z,0.00
2022-08-08T03:27:08.091Z,4.00
2022-08-08T03:28:07.892Z,4.00
2022-08-08T03:29:15.029Z,4.00
2022-08-08T03:30:08.891Z,4.00
2022-08-08T03:31:24.975Z,4.00
2022-08-08T03:32:08.893Z,4.00
2022-08-08T03:33:56.915Z,8.00
2022-08-08T03:34:08.830Z,8.00
2022-08-08T03:35:09.438Z,12.00
2022-08-08T03:36:10.358Z,12.00
2022-08-08T03:37:20.222Z,16.00
2022-08-08T03:38:54.276Z,16.00
2022-08-08T03:39:14.856Z,20.00
2022-08-08T03:40:10.654Z,20.00
2022-08-08T03:42:11.550Z,28.00
2022-08-08T03:42:27.023Z,32.00
2022-08-08T03:43:17.947Z,32.00
2022-08-08T03:44:08.711Z,40.00
2022-08-08T03:46:03.143Z,48.00
2022-08-08T03:46:09.068Z,52.00
2022-08-08T03:47:14.177Z,60.00
2022-08-08T03:48:08.661Z,72.00
2022-08-08T03:49:30.853Z,76.00
2022-08-08T03:50:08.652Z,92.00
2022-08-08T03:51:07.632Z,104.00
2022-08-08T03:52:07.652Z,116.00
2022-08-08T03:53:08.612Z,128.00
2022-08-08T03:54:07.592Z,144.00
2022-08-08T03:55:10.446Z,160.00
2022-08-08T03:56:09.570Z,180.00
2022-08-08T03:58:30.839Z,196.00
2022-08-08T03:58:33.454Z,216.00
2022-08-08T03:59:08.542Z,240.00
2022-08-08T04:00:11.816Z,264.00
2022-08-08T04:01:24.521Z,284.00
2022-08-08T04:02:32.628Z,312.00
2022-08-08T04:03:11.143Z,340.00
2022-08-08T04:04:07.545Z,368.00
2022-08-08T04:05:10.223Z,400.00
2022-08-08T04:06:07.462Z,428.00
2022-08-08T04:07:07.453Z,460.00
2022-08-08T04:08:07.473Z,496.00
2022-08-08T04:09:11.255Z,532.00
2022-08-08T04:10:07.412Z,568.00
2022-08-08T04:11:11.043Z,608.00
2022-08-08T04:12:08.382Z,652.00
2022-08-08T04:13:17.383Z,692.00
2022-08-08T04:14:35.454Z,732.00
2022-08-08T04:15:08.376Z,772.00
2022-08-08T04:16:07.343Z,816.00
2022-08-08T04:17:22.239Z,860.00
2022-08-08T04:18:16.434Z,908.00
2022-08-08T04:19:23.485Z,952.00
2022-08-08T04:20:08.482Z,1000.00
2022-08-08T04:21:07.292Z,1048.00
2022-08-08T04:22:07.273Z,1096.00
2022-08-08T04:23:07.834Z,1144.00
2022-08-08T04:24:19.480Z,1192.00
2022-08-08T04:25:08.272Z,1240.00
2022-08-08T04:26:09.368Z,1288.00
2022-08-08T04:27:10.345Z,1336.00
2022-08-08T04:28:35.266Z,1384.00
2022-08-08T04:29:08.637Z,1436.00
2022-08-08T04:30:18.194Z,1484.00
2022-08-08T04:31:09.352Z,1532.00
2022-08-08T04:32:07.482Z,1576.00
2022-08-08T04:33:07.938Z,1624.00
2022-08-08T04:34:07.137Z,1672.00
2022-08-08T04:35:07.125Z,1720.00
2022-08-08T04:36:08.143Z,1764.00
2022-08-08T04:37:07.104Z,1812.00
2022-08-08T04:38:09.592Z,1860.00
2022-08-08T04:40:06.066Z,1900.00
2022-08-08T04:40:12.110Z,1944.00
2022-08-08T04:41:07.521Z,1992.00
2022-08-08T04:42:07.066Z,2036.00
2022-08-08T04:43:08.882Z,2080.00
2022-08-08T04:44:07.023Z,2124.00
2022-08-08T04:45:07.014Z,2168.00
2022-08-08T04:46:07.005Z,2208.00
2022-08-08T04:47:06.999Z,2248.00
2022-08-08T04:48:08.185Z,2292.00
2022-08-08T04:49:06.966Z,2332.00
2022-08-08T04:50:06.960Z,2376.00
2022-08-08T04:51:07.945Z,2412.00
2022-08-08T04:52:06.935Z,2456.00
2022-08-08T04:53:13.917Z,2496.00
2022-08-08T04:54:39.680Z,2536.00
2022-08-08T04:55:07.905Z,2576.00
2022-08-08T04:56:06.887Z,2616.00
2022-08-08T04:57:06.879Z,2652.00
2022-08-08T04:58:11.060Z,2688.00
2022-08-08T04:59:07.854Z,2728.00
2022-08-08T05:00:06.856Z,2764.00
2022-08-08T05:01:10.968Z,2800.00
2022-08-08T05:02:06.860Z,2840.00
2022-08-08T05:03:06.819Z,2876.00
2022-08-08T05:04:12.678Z,2916.00
2022-08-08T05:05:07.807Z,2952.00
2022-08-08T05:06:12.790Z,2992.00
2022-08-08T05:07:07.766Z,3024.00
2022-08-08T05:08:06.747Z,3064.00
2022-08-08T05:09:07.736Z,3096.00
2022-08-08T05:10:06.772Z,3132.00
2022-08-08T05:11:06.745Z,3168.00
2022-08-08T05:12:06.705Z,3200.00
2022-08-08T05:13:17.494Z,3236.00
2022-08-08T05:14:07.677Z,3272.00
2022-08-08T05:15:06.667Z,3308.00
2022-08-08T05:16:55.000Z,3344.00
2022-08-08T05:17:08.713Z,3384.00
2022-08-08T05:18:06.637Z,3420.00
2022-08-08T05:19:06.666Z,3456.00
2022-08-08T05:20:13.202Z,3492.00
2022-08-08T05:21:07.609Z,3532.00
2022-08-08T05:22:06.820Z,3572.00
2022-08-08T05:23:06.606Z,3608.00
2022-08-08T05:24:08.785Z,3644.00
2022-08-08T05:25:06.557Z,3688.00
2022-08-08T05:26:06.591Z,3812.00
2022-08-08T05:27:06.665Z,4016.00
2022-08-08T05:28:06.528Z,4252.00
2022-08-08T05:29:06.653Z,4476.00
2022-08-08T05:30:06.501Z,4676.00
2022-08-08T05:31:19.424Z,4840.00
2022-08-08T05:32:07.956Z,4976.00
2022-08-08T05:33:06.568Z,5104.00
2022-08-08T05:34:06.476Z,5224.00
2022-08-08T05:35:06.467Z,5344.00
2022-08-08T05:36:06.504Z,5472.00
2022-08-08T05:37:15.938Z,5608.00
2022-08-08T05:38:30.569Z,5740.00
2022-08-08T05:39:07.418Z,5892.00
2022-08-08T05:40:06.396Z,6044.00
2022-08-08T05:41:06.377Z,6212.00
2022-08-08T05:42:06.360Z,6380.00
2022-08-08T05:43:17.306Z,6580.00
2022-08-08T05:44:07.340Z,6788.00
2022-08-08T05:45:24.373Z,7020.00
2022-08-08T05:46:07.861Z,7272.00
2022-08-08T05:47:06.309Z,7552.00
2022-08-08T05:48:06.299Z,7848.00
2022-08-08T05:49:11.028Z,8180.00
2022-08-08T05:50:07.281Z,8544.00
2022-08-08T05:51:14.615Z,8940.00
2022-08-08T05:52:07.241Z,9384.00
2022-08-08T05:53:54.015Z,9864.00
2022-08-08T05:54:28.138Z,10416.00
2022-08-08T05:55:09.924Z,11016.00
2022-08-08T05:56:09.492Z,11700.00
2022-08-08T05:57:07.190Z,12448.00
2022-08-08T05:58:17.658Z,13260.00
2022-08-08T05:59:12.729Z,14168.00
2022-08-08T06:00:25.357Z,15136.00
2022-08-08T06:01:07.162Z,16164.00
2022-08-08T06:02:06.131Z,17344.00
2022-08-08T06:03:06.181Z,18304.00
2022-08-08T06:04:13.583Z,19104.00
2022-08-08T06:05:32.796Z,19616.00
2022-08-08T06:06:07.083Z,20000.00
2022-08-08T06:07:06.108Z,20288.00
2022-08-08T06:08:10.157Z,20416.00
2022-08-08T06:10:00.666Z,20736.00
2022-08-08T06:10:07.040Z,25248.00
2022-08-08T06:11:06.032Z,32224.00
2022-08-08T06:12:06.023Z,34560.00
2022-08-08T06:13:06.021Z,38784.00
2022-08-08T06:14:06.002Z,43040.00
2022-08-08T06:15:06.329Z,43104.00
2022-08-08T06:16:06.638Z,39456.00
2022-08-08T06:17:05.963Z,37632.00
2022-08-08T06:18:20.521Z,45184.00
2022-08-08T06:19:07.358Z,53280.00
2022-08-08T06:20:05.924Z,55488.00
2022-08-08T06:21:27.871Z,49184.00
2022-08-08T06:22:32.331Z,38432.00
2022-08-08T06:23:06.913Z,31296.00
2022-08-08T06:24:14.015Z,30336.00
2022-08-08T06:25:06.874Z,29856.00
2022-08-08T06:26:43.544Z,29184.00
2022-08-08T06:27:06.857Z,28704.00
2022-08-08T06:28:05.836Z,28448.00
2022-08-08T06:29:26.211Z,28320.00
2022-08-08T06:30:07.323Z,28256.00
2022-08-08T06:31:09.572Z,28384.00
2022-08-08T06:32:09.903Z,28448.00
2022-08-08T06:33:09.341Z,28704.00
2022-08-08T06:34:25.706Z,28224.00
2022-08-08T06:35:11.903Z,29248.00
2022-08-08T06:36:09.984Z,29792.00
2022-08-08T06:37:24.798Z,32416.00
2022-08-08T06:38:14.231Z,40736.00
2022-08-08T06:39:07.017Z,46560.00
2022-08-08T06:40:05.741Z,49152.00
2022-08-08T06:41:05.803Z,50592.00
2022-08-08T06:42:05.689Z,51040.00
2022-08-08T06:43:05.677Z,50912.00
2022-08-08T06:44:05.669Z,51040.00
2022-08-08T06:45:06.649Z,52768.00
2022-08-08T06:46:08.654Z,54752.00
2022-08-08T06:47:05.629Z,53920.00
2022-08-08T06:48:05.655Z,52128.00
2022-08-08T06:49:05.787Z,52288.00
2022-08-08T06:50:06.592Z,53216.00
2022-08-08T06:51:07.365Z,54848.00
2022-08-08T06:52:05.601Z,53504.00
2022-08-08T06:53:10.035Z,53472.00
2022-08-08T06:54:06.542Z,55552.00
2022-08-08T06:55:05.598Z,56512.00
2022-08-08T06:56:05.523Z,57184.00
2022-08-08T06:57:05.523Z,58432.00
2022-08-08T06:58:05.975Z,59552.00
2022-08-08T06:59:12.034Z,60896.00
2022-08-08T07:00:11.342Z,60416.00
2022-08-08T07:01:24.542Z,60224.00
2022-08-08T07:02:27.295Z,59744.00
2022-08-08T07:03:06.496Z,59808.00
2022-08-08T07:04:38.732Z,61568.00
2022-08-08T07:05:06.450Z,61856.00
2022-08-08T07:06:06.426Z,60960.00
2022-08-08T07:07:10.353Z,64096.00
2022-08-08T07:08:06.406Z,63392.00
2022-08-08T07:09:05.406Z,61920.00
2022-08-08T07:10:08.280Z,62528.00
2022-08-08T07:11:05.366Z,63840.00
2022-08-08T07:12:05.347Z,64640.00
2022-08-08T07:13:05.345Z,64512.00
2022-08-08T07:14:05.327Z,64096.00
2022-08-08T07:15:05.482Z,64256.00
2022-08-08T07:16:10.527Z,66464.00
2022-08-08T07:17:09.282Z,67904.00
2022-08-08T07:18:36.476Z,68864.00
2022-08-08T07:19:06.285Z,68832.00
2022-08-08T07:20:05.268Z,70400.00
2022-08-08T07:21:05.301Z,68640.00
2022-08-08T07:22:18.451Z,67968.00
2022-08-08T07:23:06.231Z,69344.00
2022-08-08T07:24:05.232Z,67936.00
2022-08-08T07:25:06.731Z,66048.00
2022-08-08T07:26:05.212Z,67840.00
2022-08-08T07:27:05.771Z,71488.00
2022-08-08T07:28:07.912Z,72256.00
2022-08-08T07:29:05.761Z,68864.00
2022-08-08T07:30:10.008Z,68960.00
2022-08-08T07:31:06.162Z,65280.00
2022-08-08T07:32:05.161Z,67680.00
2022-08-08T07:33:05.133Z,70112.00
2022-08-08T07:34:08.724Z,70304.00
2022-08-08T07:35:06.142Z,71136.00
2022-08-08T07:36:05.104Z,66592.00
2022-08-08T07:37:13.439Z,65376.00
2022-08-08T07:38:10.419Z,60736.00
2022-08-08T07:39:06.102Z,60640.00
2022-08-08T07:40:05.153Z,67200.00
2022-08-08T07:41:05.188Z,68960.00
2022-08-08T07:42:05.508Z,71296.00
2022-08-08T07:43:08.878Z,64832.00
2022-08-08T07:44:33.440Z,61376.00
2022-08-08T07:45:05.997Z,60064.00
2022-08-08T07:46:23.503Z,61536.00
2022-08-08T07:47:05.978Z,67680.00
2022-08-08T07:48:05.246Z,71232.00
2022-08-08T07:49:04.982Z,69280.00
2022-08-08T07:50:04.979Z,68096.00
2022-08-08T07:51:04.939Z,67744.00
2022-08-08T07:52:04.923Z,67552.00
2022-08-08T07:53:04.918Z,66624.00
2022-08-08T07:54:04.900Z,64160.00
2022-08-08T07:55:04.890Z,64544.00
2022-08-08T07:56:04.908Z,64416.00
2022-08-08T07:57:08.949Z,69344.00
2022-08-08T07:58:05.864Z,69888.00
2022-08-08T07:59:06.030Z,70688.00
2022-08-08T08:00:04.841Z,74816.00
2022-08-08T08:01:05.912Z,78464.00
2022-08-08T08:02:37.035Z,76096.00
2022-08-08T08:03:07.116Z,78016.00
2022-08-08T08:04:04.834Z,77312.00
2022-08-08T08:05:04.784Z,75488.00
2022-08-08T08:06:05.777Z,74816.00
2022-08-08T08:07:04.784Z,76224.00
2022-08-08T08:08:04.763Z,75520.00
2022-08-08T08:09:05.046Z,77568.00
2022-08-08T08:10:05.133Z,77408.00
2022-08-08T08:11:04.725Z,77376.00
2022-08-08T08:12:04.715Z,76480.00
2022-08-08T08:13:04.716Z,78336.00
2022-08-08T08:14:07.670Z,81984.00
2022-08-08T08:15:05.112Z,83008.00
2022-08-08T08:16:04.669Z,83040.00
2022-08-08T08:17:04.666Z,81312.00
2022-08-08T08:18:04.675Z,81504.00
2022-08-08T08:19:04.638Z,81408.00
2022-08-08T08:20:04.635Z,80192.00
2022-08-08T08:21:04.619Z,80352.00
2022-08-08T08:22:07.817Z,80544.00
2022-08-08T08:23:04.599Z,78688.00
2022-08-08T08:24:04.618Z,76736.00
2022-08-08T08:25:07.433Z,76000.00
2022-08-08T08:26:04.579Z,77696.00
2022-08-08T08:27:04.566Z,81504.00
2022-08-08T08:28:04.549Z,83296.00
2022-08-08T08:29:04.531Z,81440.00
2022-08-08T08:30:04.563Z,81600.00
2022-08-08T08:31:04.597Z,79712.00
2022-08-08T08:32:05.772Z,79872.00
2022-08-08T08:33:04.504Z,78720.00
2022-08-08T08:34:04.491Z,77824.00
2022-08-08T08:35:04.472Z,81408.00
2022-08-08T08:36:17.610Z,82752.00
2022-08-08T08:37:08.035Z,81632.00
2022-08-08T08:38:17.230Z,82144.00
2022-08-08T08:39:07.522Z,81120.00
2022-08-08T08:40:05.426Z,80832.00
2022-08-08T08:41:06.114Z,81888.00
2022-08-08T08:42:05.404Z,82848.00
2022-08-08T08:43:06.860Z,80608.00
2022-08-08T08:44:13.979Z,79584.00
2022-08-08T08:45:16.483Z,79136.00
2022-08-08T08:46:05.777Z,82752.00
2022-08-08T08:47:04.365Z,83424.00
2022-08-08T08:48:04.336Z,84000.00
2022-08-08T08:49:04.327Z,86016.00
2022-08-08T08:50:04.327Z,86720.00
2022-08-08T08:51:04.307Z,86240.00
2022-08-08T08:52:04.326Z,86688.00
2022-08-08T08:53:04.807Z,87488.00
2022-08-08T08:54:05.277Z,88160.00
2022-08-08T08:55:04.259Z,88544.00
2022-08-08T08:56:04.259Z,88128.00
2022-08-08T08:57:04.239Z,87712.00
2022-08-08T08:58:05.258Z,87232.00
2022-08-08T08:59:04.230Z,84192.00
2022-08-08T09:00:05.619Z,83808.00
2022-08-08T09:01:09.590Z,83968.00
2022-08-08T09:02:05.261Z,85920.00
2022-08-08T09:03:04.180Z,84096.00
2022-08-08T09:04:04.190Z,81696.00
2022-08-08T09:05:04.170Z,80256.00
2022-08-08T09:06:04.162Z,79520.00
2022-08-08T09:07:08.795Z,78240.00
2022-08-08T09:08:12.659Z,79904.00
2022-08-08T09:09:05.154Z,87072.00
2022-08-08T09:10:04.714Z,90272.00
2022-08-08T09:11:04.103Z,92640.00
2022-08-08T09:12:07.537Z,92256.00
2022-08-08T09:13:04.087Z,89312.00
2022-08-08T09:14:04.082Z,85440.00
2022-08-08T09:15:06.137Z,86304.00
2022-08-08T09:16:04.184Z,89984.00
2022-08-08T09:17:11.653Z,92032.00
2022-08-08T09:18:05.685Z,93728.00
2022-08-08T09:19:04.024Z,89952.00
2022-08-08T09:21:57.975Z,86080.00
2022-08-08T09:21:58.688Z,85024.00
2022-08-08T09:22:06.471Z,86720.00
2022-08-08T09:23:03.987Z,88480.00
2022-08-08T09:24:04.148Z,91232.00
2022-08-08T09:25:04.024Z,89472.00
2022-08-08T09:26:03.987Z,86400.00
2022-08-08T09:27:03.945Z,82368.00
2022-08-08T09:28:04.099Z,84512.00
2022-08-08T09:29:08.235Z,85760.00
2022-08-08T09:30:04.918Z,86496.00
2022-08-08T09:31:03.898Z,86976.00
2022-08-08T09:32:04.918Z,84576.00
2022-08-08T09:33:55.644Z,86592.00
2022-08-08T09:34:30.616Z,90080.00
2022-08-08T09:35:08.289Z,92320.00
2022-08-08T09:36:03.859Z,88384.00
2022-08-08T09:37:37.427Z,83616.00
2022-08-08T09:38:05.861Z,78720.00
2022-08-08T09:39:03.870Z,83424.00
2022-08-08T09:40:08.689Z,89792.00
2022-08-08T09:41:04.812Z,94400.00
2022-08-08T09:42:21.331Z,94144.00
2022-08-08T09:43:16.390Z,94912.00
2022-08-08T09:44:13.010Z,94944.00
2022-08-08T09:45:08.096Z,89568.00
2022-08-08T09:46:06.591Z,91136.00
2022-08-08T09:47:25.398Z,90016.00
2022-08-08T09:48:16.039Z,92384.00
2022-08-08T09:49:40.972Z,91936.00
2022-08-08T09:50:07.526Z,47584.00
2022-08-08T09:51:05.447Z,9340.00
2022-08-08T09:52:06.846Z,8260.00
2022-08-08T09:53:22.264Z,7952.00
2022-08-08T09:54:08.447Z,7680.00
2022-08-08T09:55:05.095Z,7288.00
2022-08-08T09:56:06.483Z,7000.00
2022-08-08T09:57:03.637Z,6884.00
2022-08-08T09:58:03.633Z,6828.00
2022-08-08T09:59:20.025Z,6780.00
2022-08-08T10:00:34.271Z,6768.00
2022-08-08T10:01:58.166Z,6716.00
2022-08-08T10:02:56.275Z,6688.00
2022-08-08T10:03:57.434Z,6644.00
2022-08-08T10:04:56.288Z,6588.00
2022-08-08T10:05:56.318Z,6532.00
2022-08-08T10:06:56.239Z,6520.00
2022-08-08T10:07:59.910Z,6448.00
2022-08-08T10:08:56.216Z,6428.00
2022-08-08T10:09:59.578Z,6388.00
2022-08-08T10:10:57.217Z,6356.00
2022-08-08T10:12:27.509Z,6332.00
2022-08-08T10:12:57.595Z,6308.00
2022-08-08T10:13:57.634Z,6292.00
2022-08-08T10:14:56.148Z,6276.00
2022-08-08T10:15:59.017Z,6248.00
2022-08-08T10:16:58.508Z,6232.00
2022-08-08T10:18:11.818Z,6236.00
2022-08-08T10:18:57.107Z,6228.00
2022-08-08T10:19:57.640Z,6224.00
2022-08-08T10:21:00.433Z,6220.00
2022-08-08T10:21:57.080Z,6200.00
2022-08-08T10:22:56.111Z,6156.00
2022-08-08T10:23:59.266Z,6116.00
2022-08-08T10:24:56.041Z,6076.00
2022-08-08T10:25:57.305Z,6024.00
2022-08-08T10:26:59.699Z,5968.00
2022-08-08T10:27:57.793Z,5936.00
2022-08-08T10:28:56.021Z,5900.00
2022-08-08T10:29:58.829Z,5916.00
2022-08-08T10:31:01.051Z,5892.00
2022-08-08T10:31:56.960Z,5884.00
2022-08-08T10:32:55.953Z,5868.00
2022-08-08T10:34:19.025Z,5860.00
2022-08-08T10:35:01.089Z,5848.00
2022-08-08T10:36:08.102Z,5832.00
2022-08-08T10:36:56.916Z,5816.00
2022-08-08T10:37:55.903Z,5800.00
2022-08-08T10:38:55.893Z,5784.00
2022-08-08T10:39:55.919Z,5764.00
2022-08-08T10:40:55.885Z,5740.00
2022-08-08T10:42:13.311Z,5720.00
2022-08-08T10:42:56.856Z,5688.00
2022-08-08T10:43:55.833Z,5680.00
2022-08-08T10:44:55.835Z,5680.00
2022-08-08T10:45:58.847Z,5680.00
2022-08-08T10:46:55.805Z,5672.00
2022-08-08T10:47:55.877Z,5656.00
2022-08-08T10:48:59.164Z,5644.00
2022-08-08T10:50:01.551Z,5628.00
2022-08-08T10:50:56.787Z,5620.00
2022-08-08T10:51:55.766Z,5596.00
2022-08-08T10:52:55.739Z,5588.00
2022-08-08T10:53:58.365Z,5576.00
2022-08-08T10:54:55.719Z,5564.00
2022-08-08T10:55:55.710Z,5556.00
2022-08-08T10:56:55.719Z,5552.00
2022-08-08T10:57:55.688Z,5548.00
2022-08-08T10:58:55.679Z,5536.00
2022-08-08T10:59:55.663Z,5532.00
2022-08-08T11:01:05.016Z,5528.00
2022-08-08T11:01:56.759Z,5516.00
2022-08-08T11:02:55.649Z,5516.00
2022-08-08T11:04:02.171Z,5504.00
2022-08-08T11:04:56.613Z,5496.00
2022-08-08T11:06:00.375Z,5484.00
2022-08-08T11:06:56.591Z,5472.00
2022-08-08T11:08:38.036Z,5464.00
2022-08-08T11:08:56.569Z,5460.00
2022-08-08T11:09:55.551Z,5452.00
2022-08-08T11:10:55.545Z,5456.00
2022-08-08T11:12:06.526Z,5456.00
2022-08-08T11:13:12.434Z,5452.00
2022-08-08T11:14:00.083Z,5452.00
2022-08-08T11:14:55.505Z,5444.00
2022-08-08T11:16:00.641Z,5432.00
2022-08-08T11:16:56.503Z,5424.00
2022-08-08T11:17:58.492Z,5416.00
2022-08-08T11:18:56.475Z,5412.00
2022-08-08T11:19:55.444Z,5400.00
2022-08-08T11:20:55.443Z,5384.00
2022-08-08T11:21:56.392Z,5380.00
2022-08-08T11:22:55.415Z,5364.00
2022-08-08T11:24:02.212Z,5356.00
2022-08-08T11:24:56.394Z,5352.00
2022-08-08T11:25:57.385Z,5340.00
2022-08-08T11:26:57.247Z,5332.00
2022-08-08T11:27:55.357Z,5324.00
2022-08-08T11:28:55.348Z,5312.00
2022-08-08T11:30:19.388Z,5312.00
2022-08-08T11:30:56.345Z,5304.00
2022-08-08T11:31:55.317Z,5292.00
2022-08-08T11:32:55.309Z,5288.00
2022-08-08T11:34:01.944Z,5272.00
2022-08-08T11:35:10.474Z,5264.00
2022-08-08T11:35:56.272Z,5260.00
2022-08-08T11:36:58.796Z,5252.00
2022-08-08T11:38:39.021Z,5256.00
2022-08-08T11:38:56.273Z,5248.00
2022-08-08T11:39:57.368Z,5240.00
2022-08-08T11:40:55.238Z,5244.00
2022-08-08T11:41:55.209Z,5240.00
2022-08-08T11:42:55.201Z,5240.00
2022-08-08T11:43:58.083Z,5232.00
2022-08-08T11:44:55.171Z,5232.00
2022-08-08T11:46:09.544Z,5224.00
2022-08-08T11:46:56.159Z,5228.00
2022-08-08T11:48:04.449Z,5220.00
2022-08-08T11:48:56.135Z,5216.00
2022-08-08T11:49:55.132Z,5212.00
2022-08-08T11:50:55.353Z,5204.00
2022-08-08T11:51:55.131Z,5196.00
2022-08-08T11:52:55.092Z,5184.00
2022-08-08T11:53:59.095Z,5176.00
2022-08-08T11:54:56.076Z,5164.00
2022-08-08T11:55:55.442Z,5156.00
2022-08-08T11:56:56.559Z,5152.00
2022-08-08T11:57:59.848Z,5148.00
2022-08-08T11:58:56.023Z,5136.00
2022-08-08T11:59:58.512Z,5128.00
2022-08-08T12:00:56.003Z,5120.00
2022-08-08T12:02:09.724Z,5112.00
2022-08-08T12:02:56.104Z,5100.00
2022-08-08T12:03:59.286Z,5096.00
2022-08-08T12:04:54.966Z,5080.00
2022-08-08T12:05:54.944Z,5072.00
2022-08-08T12:06:54.935Z,5060.00
2022-08-08T12:07:56.092Z,5056.00
2022-08-08T12:08:54.946Z,5056.00
2022-08-08T12:09:59.544Z,5052.00
2022-08-08T12:10:55.896Z,5048.00
2022-08-08T12:11:54.898Z,5048.00
2022-08-08T12:12:54.879Z,5044.00
2022-08-08T12:14:03.907Z,5048.00
2022-08-08T12:14:56.665Z,5044.00
2022-08-08T12:15:55.546Z,5048.00
2022-08-08T12:16:54.827Z,5044.00
2022-08-08T12:17:54.821Z,5044.00
2022-08-08T12:18:54.818Z,5040.00
2022-08-08T12:19:54.814Z,5040.00